createdAt,value
2018-05-18T00:01:03.001Z,100505.63
2018-05-18T00:02:08.765Z,100499.27
2018-05-18T00:03:14.560Z,100500.86
2018-05-18T00:04:20.318Z,100501.20
2018-05-18T00:05:26.101Z,100507.16
2018-05-18T00:06:32.646Z,100502.25
2018-05-18T00:07:38.412Z,100507.01
2018-05-18T00:08:44.970Z,100505.45
2018-05-18T00:09:51.556Z,100500.02
2018-05-18T00:10:57.336Z,100503.08
2018-05-18T00:12:03.347Z,100501.95
2018-05-18T00:13:09.135Z,100497.10
2018-05-18T00:14:14.931Z,100494.59
2018-05-18T00:15:20.707Z,100495.44
2018-05-18T00:16:26.471Z,100496.55
2018-05-18T00:17:33.759Z,100496.78
2018-05-18T00:18:40.300Z,100491.42
2018-05-18T00:19:46.195Z,100489.69
2018-05-18T00:20:51.966Z,100493.68
2018-05-18T00:21:57.731Z,100493.30
2018-05-18T00:23:03.504Z,100491.20
2018-05-18T00:24:10.049Z,100497.02
2018-05-18T00:25:15.834Z,100489.47
2018-05-18T00:26:21.606Z,100493.25
2018-05-18T00:27:27.376Z,100496.53
2018-05-18T00:28:33.930Z,100498.66
2018-05-18T00:29:39.704Z,100497.27
2018-05-18T00:30:45.487Z,100502.95
2018-05-18T00:31:51.349Z,100505.52
2018-05-18T00:32:57.134Z,100504.63
2018-05-18T00:34:02.904Z,100507.14
2018-05-18T00:35:08.679Z,100508.84
2018-05-18T00:36:14.484Z,100505.20
2018-05-18T00:37:20.317Z,100504.98
2018-05-18T00:38:26.115Z,100502.19
2018-05-18T00:39:32.662Z,100498.66
2018-05-18T00:40:38.434Z,100498.44
2018-05-18T00:41:44.997Z,100499.41
2018-05-18T00:42:51.527Z,100505.92
2018-05-18T00:43:57.301Z,100503.14
2018-05-18T00:45:03.859Z,100503.23
2018-05-18T00:46:10.394Z,100505.23
2018-05-18T00:47:16.484Z,100500.27
2018-05-18T00:48:22.259Z,100500.22
2018-05-18T00:49:28.034Z,100501.07
2018-05-18T00:50:33.794Z,100505.37
2018-05-18T00:51:39.567Z,100501.38
2018-05-18T00:52:45.360Z,100500.83
2018-05-18T00:53:51.146Z,100498.32
2018-05-18T00:54:56.923Z,100499.52
2018-05-18T00:56:02.716Z,100500.78
2018-05-18T00:57:08.474Z,100497.14
2018-05-18T00:58:14.258Z,100502.71
2018-05-18T00:59:20.024Z,100500.26
2018-05-18T01:00:26.581Z,100501.06
2018-05-18T01:01:33.126Z,100503.19
2018-05-18T01:02:38.924Z,100506.30
2018-05-18T01:03:44.723Z,100502.52
2018-05-18T01:04:51.253Z,100509.77
2018-05-18T01:05:57.025Z,100501.17
2018-05-18T01:07:03.320Z,100500.45
2018-05-18T01:08:09.090Z,100503.83
2018-05-18T01:09:14.876Z,100500.64
2018-05-18T01:10:21.407Z,100498.73
2018-05-18T01:11:27.175Z,100503.19
2018-05-18T01:12:32.951Z,100506.25
2018-05-18T01:13:38.717Z,100501.87
2018-05-18T01:14:44.512Z,100500.64
2018-05-18T01:15:50.382Z,100503.36
2018-05-18T01:16:56.362Z,100498.05
2018-05-18T01:18:02.906Z,100501.58
2018-05-18T01:19:08.686Z,100503.19
2018-05-18T01:20:15.251Z,100501.02
2018-05-18T01:21:21.031Z,100507.19
2018-05-18T01:22:26.808Z,100504.13
2018-05-18T01:23:34.111Z,100506.77
2018-05-18T01:24:40.653Z,100498.39
2018-05-18T01:25:47.019Z,100496.77
2018-05-18T01:26:53.563Z,100500.22
2018-05-18T01:28:00.844Z,100497.16
2018-05-18T01:29:06.315Z,100502.65
2018-05-18T01:30:12.083Z,100499.46
2018-05-18T01:31:17.887Z,100501.12
2018-05-18T01:32:23.662Z,100492.78
2018-05-18T01:33:29.796Z,100499.23
2018-05-18T01:34:35.583Z,100495.59
2018-05-18T01:35:41.347Z,100492.36
2018-05-18T01:36:47.911Z,100494.02
2018-05-18T01:37:54.471Z,100496.53
2018-05-18T01:39:00.243Z,100493.85
2018-05-18T01:40:06.026Z,100491.64
2018-05-18T01:41:11.832Z,100496.48
2018-05-18T01:42:17.629Z,100494.52
2018-05-18T01:43:24.166Z,100495.37
2018-05-18T01:44:29.944Z,100492.59
2018-05-18T01:45:36.492Z,100497.44
2018-05-18T01:46:42.772Z,100498.37
2018-05-18T01:47:49.323Z,100495.92
2018-05-18T01:48:55.887Z,100501.45
2018-05-18T01:50:01.659Z,100503.28
2018-05-18T01:51:07.436Z,100505.69
2018-05-18T01:52:13.998Z,100498.98
2018-05-18T01:53:19.801Z,100502.42
2018-05-18T01:54:25.581Z,100498.39
2018-05-18T01:55:31.351Z,100498.65
2018-05-18T01:56:37.909Z,100502.14
2018-05-18T01:57:44.444Z,100506.86
2018-05-18T01:58:50.248Z,100505.28
2018-05-18T01:59:55.900Z,100506.98
2018-05-18T02:01:01.669Z,100502.81
2018-05-18T02:02:07.121Z,100503.19
2018-05-18T02:03:13.655Z,100505.83
2018-05-18T02:04:19.278Z,100505.70
2018-05-18T02:05:24.391Z,100508.34
2018-05-18T02:06:30.162Z,100499.41
2018-05-18T02:07:35.942Z,100509.45
2018-05-18T02:08:42.487Z,100510.70
2018-05-18T02:09:49.053Z,100507.55
2018-05-18T02:10:55.596Z,100502.66
2018-05-18T02:12:02.128Z,100506.19
2018-05-18T02:13:07.923Z,100511.50
2018-05-18T02:14:14.476Z,100510.99
2018-05-18T02:15:21.041Z,100512.39
2018-05-18T02:16:27.583Z,100514.98
2018-05-18T02:17:32.819Z,100514.02
2018-05-18T02:18:39.355Z,100512.73
2018-05-18T02:19:45.131Z,100517.71
2018-05-18T02:20:51.691Z,100513.67
2018-05-18T02:21:58.240Z,100517.59
2018-05-18T02:23:04.583Z,100518.31
2018-05-18T02:24:10.362Z,100511.16
2018-05-18T02:25:16.230Z,100508.31
2018-05-18T02:26:22.944Z,100508.27
2018-05-18T02:27:28.792Z,100509.16
2018-05-18T02:28:35.340Z,100508.44
2018-05-18T02:29:41.119Z,100516.52
2018-05-18T02:30:46.895Z,100514.47
2018-05-18T02:31:52.690Z,100512.02
2018-05-18T02:32:59.228Z,100514.19
2018-05-18T02:34:05.006Z,100516.27
2018-05-18T02:35:10.783Z,100517.12
2018-05-18T02:36:16.565Z,100515.17
2018-05-18T02:37:22.919Z,100519.00
2018-05-18T02:38:29.491Z,100513.34
2018-05-18T02:39:35.463Z,100515.13
2018-05-18T02:40:41.242Z,100511.09
2018-05-18T02:41:47.020Z,100514.41
2018-05-18T02:42:53.583Z,100519.17
2018-05-18T02:44:00.127Z,100510.97
2018-05-18T02:45:06.925Z,100515.81
2018-05-18T02:46:12.692Z,100513.18
2018-05-18T02:47:18.444Z,100510.88
2018-05-18T02:48:24.241Z,100515.98
2018-05-18T02:49:30.033Z,100518.28
2018-05-18T02:50:35.472Z,100510.88
2018-05-18T02:51:41.258Z,100515.81
2018-05-18T02:52:47.276Z,100509.09
2018-05-18T02:53:53.075Z,100509.47
2018-05-18T02:54:58.903Z,100512.42
2018-05-18T02:56:04.484Z,100509.98
2018-05-18T02:57:10.260Z,100509.98
2018-05-18T02:58:16.801Z,100507.91
2018-05-18T02:59:23.368Z,100506.28
2018-05-18T03:00:29.932Z,100511.72
2018-05-18T03:01:35.708Z,100510.05
2018-05-18T03:02:41.486Z,100511.42
2018-05-18T03:03:48.773Z,100512.16
2018-05-18T03:04:54.564Z,100511.25
2018-05-18T03:06:00.327Z,100511.59
2018-05-18T03:07:06.119Z,100511.41
2018-05-18T03:08:11.907Z,100510.81
2018-05-18T03:09:17.681Z,100512.91
2018-05-18T03:10:23.504Z,100511.42
2018-05-18T03:11:29.422Z,100512.27
2018-05-18T03:12:35.191Z,100508.78
2018-05-18T03:13:41.096Z,100511.03
2018-05-18T03:14:47.010Z,100509.76
2018-05-18T03:15:53.587Z,100511.75
2018-05-18T03:17:00.127Z,100505.84
2018-05-18T03:18:05.893Z,100505.58
2018-05-18T03:19:12.439Z,100507.33
2018-05-18T03:20:18.206Z,100514.98
2018-05-18T03:21:24.019Z,100514.86
2018-05-18T03:22:29.776Z,100517.77
2018-05-18T03:23:35.600Z,100520.22
2018-05-18T03:24:41.516Z,100512.48
2018-05-18T03:25:47.271Z,100509.45
2018-05-18T03:26:53.078Z,100515.84
2018-05-18T03:27:58.848Z,100518.95
2018-05-18T03:29:04.617Z,100518.44
2018-05-18T03:30:10.393Z,100517.92
2018-05-18T03:31:16.160Z,100513.59
2018-05-18T03:32:21.938Z,100516.91
2018-05-18T03:33:29.212Z,100520.44
2018-05-18T03:34:34.983Z,100521.25
2018-05-18T03:35:41.516Z,100512.45
2018-05-18T03:36:48.792Z,100514.36
2018-05-18T03:37:54.588Z,100516.11
2018-05-18T03:39:00.350Z,100515.28
2018-05-18T03:40:06.140Z,100523.24
2018-05-18T03:41:12.662Z,100522.27
2018-05-18T03:42:18.421Z,100524.44
2018-05-18T03:43:24.197Z,100522.61
2018-05-18T03:44:30.768Z,100527.08
2018-05-18T03:45:36.527Z,100527.70
2018-05-18T03:46:42.283Z,100530.61
2018-05-18T03:47:48.050Z,100530.61
2018-05-18T03:48:53.838Z,100531.92
2018-05-18T03:49:59.607Z,100533.74
2018-05-18T03:51:05.627Z,100532.98
2018-05-18T03:52:11.391Z,100529.25
2018-05-18T03:53:17.151Z,100536.77
2018-05-18T03:54:22.931Z,100531.92
2018-05-18T03:55:29.488Z,100542.39
2018-05-18T03:56:35.678Z,100541.31
2018-05-18T03:57:41.453Z,100531.11
2018-05-18T03:58:47.233Z,100540.22
2018-05-18T03:59:53.775Z,100532.22
2018-05-18T04:01:00.374Z,100538.81
2018-05-18T04:02:23.314Z,100541.27
2018-05-18T04:03:47.122Z,100545.09
2018-05-18T04:05:09.752Z,100541.83
2018-05-18T04:06:32.659Z,100543.34
2018-05-18T04:09:25.356Z,100542.45
2018-05-18T04:10:31.150Z,100546.37
2018-05-18T04:11:36.960Z,100546.20
2018-05-18T04:12:42.734Z,100551.91
2018-05-18T04:13:49.067Z,100548.33
2018-05-18T04:14:55.292Z,100549.73
2018-05-18T04:16:01.085Z,100545.23
2018-05-18T04:17:06.872Z,100546.73
2018-05-18T04:18:12.806Z,100545.41
2018-05-18T04:19:18.656Z,100546.27
2018-05-18T04:20:25.158Z,100543.58
2018-05-18T04:21:31.241Z,100544.61
2018-05-18T04:22:36.993Z,100549.34
2018-05-18T04:23:43.832Z,100545.72
2018-05-18T04:24:49.788Z,100546.14
2018-05-18T04:25:56.625Z,100550.14
2018-05-18T04:27:03.128Z,100548.40
2018-05-18T04:28:09.560Z,100554.39
2018-05-18T04:29:16.076Z,100555.59
2018-05-18T04:30:21.863Z,100553.85
2018-05-18T04:31:28.583Z,100549.77
2018-05-18T04:32:34.385Z,100549.68
2018-05-18T04:33:40.153Z,100553.94
2018-05-18T04:34:45.912Z,100556.67
2018-05-18T04:35:51.672Z,100556.16
2018-05-18T04:36:57.431Z,100557.39
2018-05-18T04:38:03.983Z,100563.77
2018-05-18T04:39:10.583Z,100558.37
2018-05-18T04:40:16.499Z,100565.22
2018-05-18T04:41:23.019Z,100566.96
2018-05-18T04:42:28.796Z,100570.92
2018-05-18T04:43:35.353Z,100567.14
2018-05-18T04:44:41.935Z,100569.39
2018-05-18T04:45:47.730Z,100572.89
2018-05-18T04:46:53.506Z,100564.88
2018-05-18T04:48:00.045Z,100568.59
2018-05-18T04:49:05.838Z,100572.59
2018-05-18T04:50:11.635Z,100567.23
2018-05-18T04:51:18.167Z,100567.14
2018-05-18T04:52:23.938Z,100565.48
2018-05-18T04:53:30.467Z,100574.55
2018-05-18T04:54:36.279Z,100565.70
2018-05-18T04:55:42.047Z,100573.27
2018-05-18T04:56:47.908Z,100571.95
2018-05-18T04:57:53.674Z,100576.25
2018-05-18T04:59:00.207Z,100576.80
2018-05-18T05:00:05.990Z,100577.73
2018-05-18T05:01:11.764Z,100579.09
2018-05-18T05:02:17.536Z,100583.86
2018-05-18T05:03:24.071Z,100583.95
2018-05-18T05:04:29.835Z,100594.41
2018-05-18T05:05:35.688Z,100588.47
2018-05-18T05:06:41.606Z,100588.38
2018-05-18T05:07:47.368Z,100586.48
2018-05-18T05:08:53.143Z,100586.43
2018-05-18T05:09:59.670Z,100584.17
2018-05-18T05:11:06.227Z,100587.37
2018-05-18T05:12:12.778Z,100587.37
2018-05-18T05:13:18.548Z,100586.48
2018-05-18T05:14:24.312Z,100591.88
2018-05-18T05:15:30.082Z,100591.48
2018-05-18T05:16:35.866Z,100595.48
2018-05-18T05:17:42.400Z,100589.66
2018-05-18T05:18:48.197Z,100592.61
2018-05-18T05:19:53.981Z,100597.28
2018-05-18T05:20:59.886Z,100598.69
2018-05-18T05:22:05.352Z,100593.45
2018-05-18T05:23:11.135Z,100593.75
2018-05-18T05:24:17.690Z,100591.58
2018-05-18T05:25:23.450Z,100596.73
2018-05-18T05:26:30.129Z,100590.81
2018-05-18T05:27:35.911Z,100600.95
2018-05-18T05:28:41.704Z,100600.09
2018-05-18T05:29:47.482Z,100598.08
2018-05-18T05:30:53.243Z,100600.50
2018-05-18T05:31:59.029Z,100600.24
2018-05-18T05:33:04.882Z,100601.34
2018-05-18T05:34:10.650Z,100604.58
2018-05-18T05:35:16.419Z,100596.73
2018-05-18T05:36:22.966Z,100601.59
2018-05-18T05:37:28.731Z,100607.71
2018-05-18T05:38:35.307Z,100603.73
2018-05-18T05:39:41.844Z,100602.75
2018-05-18T05:40:48.152Z,100611.98
2018-05-18T05:41:53.928Z,100609.31
2018-05-18T05:42:59.718Z,100611.54
2018-05-18T05:44:05.195Z,100610.86
2018-05-18T05:45:10.980Z,100610.52
2018-05-18T05:46:17.552Z,100611.38
2018-05-18T05:47:24.128Z,100606.56
2018-05-18T05:48:29.890Z,100604.19
2018-05-18T05:49:35.685Z,100609.00
2018-05-18T05:50:42.228Z,100605.29
2018-05-18T05:51:48.010Z,100608.95
2018-05-18T05:52:53.810Z,100614.45
2018-05-18T05:53:59.762Z,100621.44
2018-05-18T05:55:06.342Z,100614.66
2018-05-18T05:56:12.891Z,100614.79
2018-05-18T05:57:19.481Z,100614.45
2018-05-18T05:58:25.270Z,100617.86
2018-05-18T05:59:30.907Z,100617.19
2018-05-18T06:00:36.702Z,100612.29
2018-05-18T06:01:42.480Z,100613.14
2018-05-18T06:02:48.260Z,100614.39
2018-05-18T06:03:54.459Z,100624.43
2018-05-18T06:05:00.240Z,100619.53
2018-05-18T06:06:06.040Z,100616.80
2018-05-18T06:07:11.834Z,100613.31
2018-05-18T06:08:18.389Z,100623.23
2018-05-18T06:09:24.163Z,100623.54
2018-05-18T06:10:30.154Z,100623.71
2018-05-18T06:11:36.016Z,100617.14
2018-05-18T06:12:41.800Z,100620.34
2018-05-18T06:13:47.439Z,100619.53
2018-05-18T06:14:52.980Z,100617.07
2018-05-18T06:15:58.756Z,100622.17
2018-05-18T06:17:04.550Z,100620.18
2018-05-18T06:18:10.332Z,100624.98
2018-05-18T06:19:16.107Z,100629.98
2018-05-18T06:20:21.876Z,100624.31
2018-05-18T06:21:27.674Z,100636.28
2018-05-18T06:22:33.122Z,100633.47
2018-05-18T06:23:38.938Z,100633.38
2018-05-18T06:24:45.521Z,100632.15
2018-05-18T06:25:51.595Z,100639.17
2018-05-18T06:26:58.176Z,100632.45
2018-05-18T06:28:03.995Z,100633.98
2018-05-18T06:29:10.531Z,100635.30
2018-05-18T06:30:17.847Z,100638.28
2018-05-18T06:31:23.619Z,100635.86
2018-05-18T06:32:29.427Z,100633.77
2018-05-18T06:33:36.011Z,100633.34
2018-05-18T06:34:41.921Z,100637.00
2018-05-18T06:35:48.568Z,100639.64
2018-05-18T06:36:54.352Z,100630.75
2018-05-18T06:38:00.301Z,100632.31
2018-05-18T06:39:07.126Z,100638.75
2018-05-18T06:40:13.672Z,100638.15
2018-05-18T06:41:19.492Z,100638.06
2018-05-18T06:42:26.187Z,100643.17
2018-05-18T06:43:31.694Z,100647.78
2018-05-18T06:44:37.532Z,100640.32
2018-05-18T06:45:43.323Z,100640.16
2018-05-18T06:46:50.220Z,100645.73
2018-05-18T06:47:55.999Z,100642.45
2018-05-18T06:49:01.792Z,100644.67
2018-05-18T06:50:08.403Z,100651.10
2018-05-18T06:51:14.177Z,100649.27
2018-05-18T06:52:20.807Z,100653.79
2018-05-18T06:53:26.712Z,100656.91
2018-05-18T06:54:32.496Z,100661.20
2018-05-18T06:55:38.299Z,100663.58
2018-05-18T06:56:44.068Z,100657.63
2018-05-18T06:57:49.835Z,100655.70
2018-05-18T06:58:55.623Z,100658.13
2018-05-18T07:00:01.406Z,100659.88
2018-05-18T07:01:07.197Z,100661.15
2018-05-18T07:02:13.729Z,100658.64
2018-05-18T07:03:19.496Z,100666.00
2018-05-18T07:04:25.326Z,100660.89
2018-05-18T07:05:31.612Z,100661.20
2018-05-18T07:06:37.419Z,100666.60
2018-05-18T07:07:43.959Z,100665.80
2018-05-18T07:08:49.738Z,100667.16
2018-05-18T07:09:55.517Z,100668.09
2018-05-18T07:11:01.287Z,100663.63
2018-05-18T07:12:07.081Z,100665.80
2018-05-18T07:13:12.920Z,100673.67
2018-05-18T07:14:18.706Z,100674.27
2018-05-18T07:15:24.539Z,100672.02
2018-05-18T07:16:30.382Z,100669.55
2018-05-18T07:17:37.090Z,100664.69
2018-05-18T07:18:43.627Z,100674.49
2018-05-18T07:19:49.483Z,100672.66
2018-05-18T07:20:56.028Z,100677.09
2018-05-18T07:22:02.563Z,100676.88
2018-05-18T07:23:08.393Z,100672.66
2018-05-18T07:24:15.140Z,100673.64
2018-05-18T07:25:20.920Z,100673.09
2018-05-18T07:26:26.694Z,100676.41
2018-05-18T07:27:33.249Z,100673.55
2018-05-18T07:28:39.077Z,100672.11
2018-05-18T07:29:44.842Z,100665.80
2018-05-18T07:30:51.760Z,100669.83
2018-05-18T07:31:57.524Z,100671.14
2018-05-18T07:33:03.291Z,100672.23
2018-05-18T07:34:09.899Z,100670.66
2018-05-18T07:35:15.675Z,100668.01
2018-05-18T07:36:21.491Z,100666.06
2018-05-18T07:37:27.396Z,100669.41
2018-05-18T07:38:33.982Z,100672.01
2018-05-18T07:39:39.794Z,100671.88
2018-05-18T07:40:46.351Z,100672.73
2018-05-18T07:41:52.904Z,100673.72
2018-05-18T07:42:58.700Z,100674.91
2018-05-18T07:44:04.268Z,100678.36
2018-05-18T07:45:10.067Z,100685.86
2018-05-18T07:46:15.863Z,100686.17
2018-05-18T07:47:22.403Z,100681.41
2018-05-18T07:48:28.172Z,100676.88
2018-05-18T07:49:34.729Z,100687.80
2018-05-18T07:50:40.891Z,100682.39
2018-05-18T07:51:46.962Z,100683.92
2018-05-18T07:52:53.508Z,100681.14
2018-05-18T07:54:00.167Z,100681.86
2018-05-18T07:55:06.711Z,100682.13
2018-05-18T07:56:12.510Z,100684.19
2018-05-18T07:57:18.290Z,100683.85
2018-05-18T07:58:24.070Z,100685.34
2018-05-18T07:59:29.607Z,100679.30
2018-05-18T08:00:35.504Z,100677.98
2018-05-18T08:01:41.296Z,100676.37
2018-05-18T08:02:47.069Z,100685.23
2018-05-18T08:03:52.882Z,100684.59
2018-05-18T08:04:58.652Z,100679.67
2018-05-18T08:06:04.446Z,100687.19
2018-05-18T08:07:11.029Z,100686.59
2018-05-18T08:08:16.815Z,100683.05
2018-05-18T08:09:22.591Z,100688.41
2018-05-18T08:10:29.135Z,100685.22
2018-05-18T08:11:34.908Z,100688.11
2018-05-18T08:12:40.715Z,100687.68
2018-05-18T08:13:46.487Z,100690.46
2018-05-18T08:14:53.033Z,100693.87
2018-05-18T08:15:59.583Z,100694.21
2018-05-18T08:17:05.030Z,100695.26
2018-05-18T08:18:11.614Z,100700.28
2018-05-18T08:19:17.390Z,100699.41
2018-05-18T08:20:23.164Z,100698.83
2018-05-18T08:21:29.885Z,100702.58
2018-05-18T08:22:35.857Z,100693.66
2018-05-18T08:23:41.478Z,100699.06
2018-05-18T08:24:47.310Z,100699.69
2018-05-18T08:25:53.090Z,100691.81
2018-05-18T08:27:15.781Z,100697.95
2018-05-18T08:28:21.551Z,100698.95
2018-05-18T08:29:38.322Z,100693.65
2018-05-18T08:31:01.196Z,100698.42
2018-05-18T08:32:06.331Z,100695.92
2018-05-18T08:33:13.257Z,100703.09
2018-05-18T08:34:19.191Z,100705.73
2018-05-18T08:35:25.232Z,100703.70
2018-05-18T08:36:31.816Z,100704.89
2018-05-18T08:37:37.591Z,100703.28
2018-05-18T08:38:43.395Z,100696.19
2018-05-18T08:39:49.154Z,100697.63
2018-05-18T08:40:55.287Z,100704.66
2018-05-18T08:42:01.065Z,100703.53
2018-05-18T08:43:06.947Z,100705.49
2018-05-18T08:44:13.479Z,100705.50
2018-05-18T08:45:19.371Z,100697.61
2018-05-18T08:46:25.186Z,100704.75
2018-05-18T08:47:31.763Z,100705.42
2018-05-18T08:48:38.341Z,100706.17
2018-05-18T08:49:44.166Z,100698.37
2018-05-18T08:50:50.728Z,100706.38
2018-05-18T08:51:56.544Z,100704.57
2018-05-18T08:53:02.317Z,100708.45
2018-05-18T08:54:08.083Z,100706.70
2018-05-18T08:55:13.937Z,100711.67
2018-05-18T08:56:19.900Z,100715.07
2018-05-18T08:57:25.771Z,100713.69
2018-05-18T08:58:32.337Z,100711.52
2018-05-18T08:59:38.872Z,100713.16
2018-05-18T09:00:44.656Z,100714.43
2018-05-18T09:01:50.432Z,100716.72
2018-05-18T09:02:56.234Z,100716.16
2018-05-18T09:04:02.003Z,100713.78
2018-05-18T09:05:07.830Z,100711.23
2018-05-18T09:06:14.679Z,100715.30
2018-05-18T09:07:21.216Z,100718.89
2018-05-18T09:08:27.011Z,100714.92
2018-05-18T09:09:32.802Z,100717.00
2018-05-18T09:10:38.698Z,100713.03
2018-05-18T09:11:44.476Z,100720.17
2018-05-18T09:12:50.253Z,100711.02
2018-05-18T09:13:56.057Z,100715.61
2018-05-18T09:15:02.600Z,100714.28
2018-05-18T09:16:08.045Z,100711.63
2018-05-18T09:17:13.823Z,100711.14
2018-05-18T09:18:20.379Z,100713.23
2018-05-18T09:19:26.931Z,100713.33
2018-05-18T09:20:32.720Z,100719.14
2018-05-18T09:21:38.492Z,100716.88
2018-05-18T09:22:44.348Z,100712.44
2018-05-18T09:23:50.129Z,100715.13
2018-05-18T09:24:55.933Z,100717.38
2018-05-18T09:26:02.488Z,100718.09
2018-05-18T09:27:08.263Z,100721.68
2018-05-18T09:28:14.041Z,100715.37
2018-05-18T09:29:19.826Z,100716.75
2018-05-18T09:30:26.391Z,100715.00
2018-05-18T09:31:32.933Z,100713.67
2018-05-18T09:32:38.707Z,100715.37
2018-05-18T09:33:45.247Z,100712.19
2018-05-18T09:34:51.027Z,100722.27
2018-05-18T09:35:56.820Z,100712.30
2018-05-18T09:37:02.731Z,100716.41
2018-05-18T09:38:08.555Z,100713.34
2018-05-18T09:39:14.329Z,100718.47
2018-05-18T09:40:20.105Z,100710.51
2018-05-18T09:41:26.656Z,100717.59
2018-05-18T09:42:32.445Z,100724.47
2018-05-18T09:43:38.213Z,100717.94
2018-05-18T09:44:43.999Z,100718.84
2018-05-18T09:45:50.541Z,100727.05
2018-05-18T09:46:56.343Z,100723.94
2018-05-18T09:48:02.121Z,100724.31
2018-05-18T09:49:08.018Z,100725.72
2018-05-18T09:50:13.778Z,100728.84
2018-05-18T09:51:19.710Z,100726.17
2018-05-18T09:52:25.551Z,100729.20
2018-05-18T09:53:31.340Z,100728.20
2018-05-18T09:54:37.189Z,100727.95
2018-05-18T09:55:43.871Z,100726.50
2018-05-18T09:56:50.418Z,100728.87
2018-05-18T09:57:56.211Z,100727.24
2018-05-18T09:59:02.017Z,100734.41
2018-05-18T10:00:08.555Z,100727.78
2018-05-18T10:01:14.331Z,100730.23
2018-05-18T10:02:20.104Z,100728.65
2018-05-18T10:03:25.908Z,100728.62
2018-05-18T10:04:32.455Z,100730.10
2018-05-18T10:05:38.993Z,100725.57
2018-05-18T10:06:44.861Z,100727.65
2018-05-18T10:07:51.391Z,100730.46
2018-05-18T10:08:57.198Z,100730.86
2018-05-18T10:10:03.006Z,100726.67
2018-05-18T10:11:09.549Z,100723.01
2018-05-18T10:12:16.091Z,100730.44
2018-05-18T10:13:23.331Z,100727.81
2018-05-18T10:14:29.893Z,100731.34
2018-05-18T10:15:35.722Z,100723.73
2018-05-18T10:16:42.507Z,100727.28
2018-05-18T10:17:48.448Z,100728.21
2018-05-18T10:18:54.348Z,100726.94
2018-05-18T10:20:01.059Z,100725.92
2018-05-18T10:21:07.000Z,100726.62
2018-05-18T10:22:13.623Z,100731.02
2018-05-18T10:23:20.206Z,100728.45
2018-05-18T10:24:28.271Z,100734.25
2018-05-18T10:25:37.478Z,100735.50
2018-05-18T10:26:43.407Z,100733.62
2018-05-18T10:27:49.438Z,100732.02
2018-05-18T10:28:55.686Z,100730.09
2018-05-18T10:30:01.736Z,100733.23
2018-05-18T10:31:07.584Z,100722.21
2018-05-18T10:32:13.616Z,100728.56
2018-05-18T10:33:20.247Z,100728.20
2018-05-18T10:34:27.271Z,100730.12
2018-05-18T10:35:34.288Z,100731.35
2018-05-18T10:36:41.115Z,100727.12
2018-05-18T10:37:47.009Z,100728.20
2018-05-18T10:38:52.786Z,100729.77
2018-05-18T10:39:59.017Z,100725.19
2018-05-18T10:41:04.736Z,100731.58
2018-05-18T10:42:10.825Z,100726.15
2018-05-18T10:43:16.855Z,100723.48
2018-05-18T10:44:23.388Z,100720.30
2018-05-18T10:45:29.648Z,100719.83
2018-05-18T10:46:36.491Z,100722.55
2018-05-18T10:47:42.299Z,100723.52
2018-05-18T10:48:47.979Z,100725.61
2018-05-18T10:49:53.800Z,100724.91
2018-05-18T10:50:59.720Z,100721.77
2018-05-18T10:52:05.272Z,100725.21
2018-05-18T10:53:11.189Z,100723.93
2018-05-18T10:54:17.069Z,100725.84
2018-05-18T10:55:22.895Z,100719.31
2018-05-18T10:56:28.650Z,100724.94
2018-05-18T10:57:34.456Z,100722.50
2018-05-18T10:58:40.298Z,100721.80
2018-05-18T10:59:46.252Z,100723.73
2018-05-18T11:00:52.811Z,100721.20
2018-05-18T11:01:59.443Z,100728.91
2018-05-18T11:03:05.239Z,100726.34
2018-05-18T11:04:11.945Z,100727.91
2018-05-18T11:05:17.720Z,100721.24
2018-05-18T11:06:24.479Z,100723.80
2018-05-18T11:07:30.998Z,100721.47
2018-05-18T11:08:36.791Z,100719.63
2018-05-18T11:09:43.331Z,100716.34
2018-05-18T11:10:49.251Z,100719.50
2018-05-18T11:11:55.022Z,100717.64
2018-05-18T11:13:00.783Z,100715.16
2018-05-18T11:14:07.349Z,100716.91
2018-05-18T11:15:14.937Z,100711.27
2018-05-18T11:16:20.740Z,100717.49
2018-05-18T11:17:26.811Z,100712.46
2018-05-18T11:18:33.770Z,100712.27
2018-05-18T11:19:41.381Z,100708.84
2018-05-18T11:20:47.183Z,100716.32
2018-05-18T11:21:54.452Z,100713.54
2018-05-18T11:23:00.214Z,100710.86
2018-05-18T11:24:05.986Z,100713.73
2018-05-18T11:25:11.833Z,100712.95
2018-05-18T11:26:17.675Z,100711.25
2018-05-18T11:27:23.581Z,100713.98
2018-05-18T11:28:30.177Z,100713.53
2018-05-18T11:29:36.097Z,100711.08
2018-05-18T11:30:41.889Z,100709.92
2018-05-18T11:31:47.670Z,100708.41
2018-05-18T11:32:54.203Z,100712.87
2018-05-18T11:34:00.052Z,100706.80
2018-05-18T11:35:05.812Z,100708.97
2018-05-18T11:36:11.631Z,100708.99
2018-05-18T11:37:18.345Z,100710.50
2018-05-18T11:38:24.981Z,100709.95
2018-05-18T11:39:30.803Z,100706.88
2018-05-18T11:40:36.606Z,100711.67
2018-05-18T11:41:43.510Z,100708.95
2018-05-18T11:42:49.337Z,100704.54
2018-05-18T11:43:55.115Z,100711.94
2018-05-18T11:45:00.887Z,100709.18
2018-05-18T11:46:06.659Z,100707.59
2018-05-18T11:47:12.451Z,100708.77
2018-05-18T11:48:20.250Z,100705.39
2018-05-18T11:49:26.786Z,100705.66
2018-05-18T11:50:32.559Z,100705.98
2018-05-18T11:51:39.141Z,100719.71
2018-05-18T11:52:44.959Z,100710.58
2018-05-18T11:53:51.510Z,100708.94
2018-05-18T11:54:58.058Z,100703.48
2018-05-18T11:56:03.874Z,100711.34
2018-05-18T11:57:09.632Z,100708.05
2018-05-18T11:58:15.601Z,100704.60
2018-05-18T11:59:21.939Z,100705.83
2018-05-18T12:00:28.128Z,100707.59
2018-05-18T12:01:33.914Z,100699.39
2018-05-18T12:02:39.777Z,100706.53
2018-05-18T12:03:45.643Z,100703.98
2018-05-18T12:04:52.203Z,100700.20
2018-05-18T12:05:58.778Z,100703.56
2018-05-18T12:07:05.324Z,100699.89
2018-05-18T12:08:12.186Z,100701.83
2018-05-18T12:09:19.360Z,100699.17
2018-05-18T12:10:25.963Z,100702.00
2018-05-18T12:11:33.364Z,100704.44
2018-05-18T12:12:39.279Z,100708.11
2018-05-18T12:13:44.867Z,100711.63
2018-05-18T12:14:50.454Z,100706.25
2018-05-18T12:15:56.302Z,100706.53
2018-05-18T12:17:02.116Z,100705.51
2018-05-18T12:18:08.680Z,100707.15
2018-05-18T12:19:15.364Z,100708.11
2018-05-18T12:20:21.253Z,100702.95
2018-05-18T12:21:27.357Z,100707.73
2018-05-18T12:22:33.195Z,100703.43
2018-05-18T12:23:38.998Z,100705.16
2018-05-18T12:24:44.771Z,100711.89
2018-05-18T12:25:50.371Z,100707.25
2018-05-18T12:26:56.373Z,100709.01
2018-05-18T12:28:02.194Z,100709.48
2018-05-18T12:29:08.739Z,100713.31
2018-05-18T12:30:15.284Z,100706.19
2018-05-18T12:31:21.895Z,100708.65
2018-05-18T12:32:27.668Z,100706.36
2018-05-18T12:33:33.444Z,100710.55
2018-05-18T12:34:39.996Z,100712.73
2018-05-18T12:35:45.364Z,100703.53
2018-05-18T12:36:52.108Z,100707.75
2018-05-18T12:37:58.672Z,100708.48